createdAt,value
2019-04-29T00:02:09.592Z,5.50
2019-04-29T00:04:38.038Z,5.40
2019-04-29T00:07:06.536Z,5.40
2019-04-29T00:09:34.970Z,5.30
2019-04-29T00:12:03.394Z,5.30
2019-04-29T00:14:32.208Z,5.30
2019-04-29T00:17:08.268Z,5.30
2019-04-29T00:19:54.385Z,5.30
2019-04-29T00:22:22.876Z,5.30
2019-04-29T00:24:51.314Z,5.40
2019-04-29T00:27:19.742Z,5.30
2019-04-29T00:29:48.195Z,5.30
2019-04-29T00:32:16.678Z,5.30
2019-04-29T00:34:45.141Z,5.20
2019-04-29T00:37:27.210Z,5.20
2019-04-29T00:40:13.763Z,5.20
2019-04-29T00:43:01.948Z,5.20
2019-04-29T00:45:30.521Z,5.10
2019-04-29T00:47:58.938Z,4.90
2019-04-29T00:50:27.390Z,4.90
2019-04-29T00:52:55.805Z,5.00
2019-04-29T00:55:28.980Z,5.00
2019-04-29T00:57:57.390Z,5.10
2019-04-29T01:00:39.463Z,5.10
2019-04-29T01:03:08.031Z,5.20
2019-04-29T01:05:37.223Z,5.10
2019-04-29T01:08:05.649Z,5.00
2019-04-29T01:10:34.123Z,4.90
2019-04-29T01:13:21.992Z,4.90
2019-04-29T01:15:50.432Z,4.90
2019-04-29T01:18:18.849Z,4.80
2019-04-29T01:20:47.372Z,4.80
2019-04-29T01:23:15.794Z,4.70
2019-04-29T01:25:45.913Z,4.70
2019-04-29T01:28:15.966Z,4.70
2019-04-29T01:30:59.162Z,4.50
2019-04-29T01:33:27.601Z,4.50
2019-04-29T01:36:09.967Z,4.50
2019-04-29T01:38:38.459Z,4.40
2019-04-29T01:41:08.557Z,4.30
2019-04-29T01:43:41.413Z,4.20
2019-04-29T01:46:09.907Z,4.20
2019-04-29T01:48:38.352Z,4.20
2019-04-29T01:51:06.800Z,4.20
2019-04-29T01:53:35.225Z,4.30
2019-04-29T01:56:03.700Z,4.20
2019-04-29T01:58:32.137Z,4.20
2019-04-29T02:01:00.591Z,4.10
2019-04-29T02:03:34.999Z,4.10
2019-04-29T02:06:05.297Z,4.10
2019-04-29T02:08:33.715Z,4.20
2019-04-29T02:11:02.182Z,4.10
2019-04-29T02:13:30.620Z,4.10
2019-04-29T02:16:48.911Z,4.10
2019-04-29T02:19:17.328Z,4.10
2019-04-29T02:22:12.447Z,4.20
2019-04-29T02:24:45.555Z,4.10
2019-04-29T02:27:17.211Z,4.30
2019-04-29T02:29:47.360Z,4.20
2019-04-29T02:32:15.819Z,4.20
2019-04-29T02:34:44.283Z,4.20
2019-04-29T02:37:14.402Z,4.20
2019-04-29T02:39:50.273Z,4.10
2019-04-29T02:42:36.628Z,4.10
2019-04-29T02:45:08.656Z,4.00
2019-04-29T02:47:37.104Z,3.90
2019-04-29T02:50:06.691Z,3.80
2019-04-29T02:52:35.145Z,3.90
2019-04-29T02:55:05.899Z,3.80
2019-04-29T02:57:38.549Z,3.90
2019-04-29T03:00:21.784Z,3.90
2019-04-29T03:02:51.897Z,3.90
2019-04-29T03:05:21.958Z,3.90
2019-04-29T03:07:50.433Z,3.90
2019-04-29T03:10:18.879Z,4.00
2019-04-29T03:12:47.345Z,4.00
2019-04-29T03:15:29.695Z,4.00
2019-04-29T03:17:58.167Z,4.00
2019-04-29T03:20:31.173Z,3.90
2019-04-29T03:23:10.515Z,4.00
2019-04-29T03:25:38.944Z,3.90
2019-04-29T03:28:07.398Z,3.80
2019-04-29T03:30:35.872Z,3.80
2019-04-29T03:33:04.324Z,3.70
2019-04-29T03:35:32.767Z,3.70
2019-04-29T03:38:01.245Z,3.80
2019-04-29T03:40:29.675Z,3.80
2019-04-29T03:42:58.112Z,3.70
2019-04-29T03:45:26.630Z,3.70
2019-04-29T03:47:55.059Z,3.70
2019-04-29T03:50:23.523Z,3.70
2019-04-29T03:52:51.964Z,3.70
2019-04-29T03:55:38.349Z,3.70
2019-04-29T03:57:50.544Z,3.70
2019-04-29T04:00:19.545Z,3.70
2019-04-29T04:02:58.658Z,3.80
2019-04-29T04:05:34.647Z,4.00
2019-04-29T04:08:13.780Z,4.00
2019-04-29T04:10:42.260Z,4.10
2019-04-29T04:13:10.698Z,4.10
2019-04-29T04:15:39.220Z,4.20
2019-04-29T04:18:15.027Z,4.10
2019-04-29T04:20:43.486Z,4.10
2019-04-29T04:23:11.930Z,4.10
2019-04-29T04:25:40.403Z,4.10
2019-04-29T04:28:08.887Z,4.10
2019-04-29T04:30:37.329Z,4.00
2019-04-29T04:33:05.769Z,4.00
2019-04-29T04:35:34.284Z,4.00
2019-04-29T04:38:02.721Z,4.00
2019-04-29T04:40:35.593Z,4.10
2019-04-29T04:43:04.074Z,4.10
2019-04-29T04:45:32.581Z,4.30
2019-04-29T04:48:00.992Z,4.40
2019-04-29T04:50:29.459Z,4.50
2019-04-29T04:52:57.903Z,4.60
2019-04-29T04:55:28.015Z,4.80
2019-04-29T04:57:56.468Z,4.90
2019-04-29T05:00:26.688Z,5.00
2019-04-29T05:03:43.740Z,5.10
2019-04-29T05:06:12.206Z,5.20
2019-04-29T05:08:40.634Z,5.30
2019-04-29T05:11:09.101Z,5.40
2019-04-29T05:13:37.554Z,5.50
2019-04-29T05:16:06.016Z,5.50
2019-04-29T05:18:34.473Z,5.50
2019-04-29T05:21:02.908Z,5.50
2019-04-29T05:23:31.349Z,5.50
2019-04-29T05:25:59.821Z,5.50
2019-04-29T05:28:28.276Z,5.50
2019-04-29T05:30:56.739Z,5.50
2019-04-29T05:33:25.155Z,5.50
2019-04-29T05:35:56.775Z,5.50
2019-04-29T05:38:32.987Z,5.40
2019-04-29T05:41:01.456Z,5.40
2019-04-29T05:43:37.541Z,5.50
2019-04-29T05:46:21.661Z,5.80
2019-04-29T05:48:49.790Z,5.90
2019-04-29T05:51:36.157Z,6.00
2019-04-29T05:54:06.236Z,6.10
2019-04-29T05:56:34.719Z,6.20
2019-04-29T05:59:03.157Z,6.40
2019-04-29T06:01:31.973Z,6.40
2019-04-29T06:04:00.414Z,6.50
2019-04-29T06:06:28.887Z,6.60
2019-04-29T06:08:57.339Z,6.60
2019-04-29T06:11:25.851Z,6.80
2019-04-29T06:13:54.294Z,6.90
2019-04-29T06:16:22.843Z,7.10
2019-04-29T06:18:59.690Z,7.20
2019-04-29T06:21:21.449Z,7.40
2019-04-29T06:23:49.893Z,7.50
2019-04-29T06:26:18.354Z,7.50
2019-04-29T06:28:46.812Z,7.70
2019-04-29T06:31:15.255Z,7.80
2019-04-29T06:33:43.688Z,8.00
2019-04-29T06:36:12.136Z,8.40
2019-04-29T06:38:40.586Z,8.30
2019-04-29T06:41:09.720Z,8.40
2019-04-29T06:43:39.296Z,8.60
2019-04-29T06:46:07.756Z,8.70
2019-04-29T06:48:36.196Z,8.60
2019-04-29T06:51:04.663Z,8.60
2019-04-29T06:53:33.093Z,8.60
2019-04-29T06:56:01.526Z,8.50
2019-04-29T06:58:32.433Z,8.60
2019-04-29T07:01:01.054Z,8.60
2019-04-29T07:03:30.200Z,8.60
2019-04-29T07:05:58.639Z,8.70
2019-04-29T07:08:27.085Z,8.80
2019-04-29T07:10:55.880Z,8.90
2019-04-29T07:13:25.655Z,8.90
2019-04-29T07:15:54.091Z,8.90
2019-04-29T07:18:22.547Z,8.80
2019-04-29T07:20:50.996Z,8.70
2019-04-29T07:23:19.478Z,8.50
2019-04-29T07:25:47.918Z,8.50
2019-04-29T07:28:18.494Z,8.60
2019-04-29T07:31:01.107Z,8.60
2019-04-29T07:33:21.828Z,8.70
2019-04-29T07:35:47.932Z,8.70
2019-04-29T07:38:16.831Z,8.80
2019-04-29T07:40:45.270Z,8.80
2019-04-29T07:43:13.728Z,8.80
2019-04-29T07:46:03.569Z,8.80
2019-04-29T07:48:28.947Z,8.80
2019-04-29T07:51:02.357Z,8.80
2019-04-29T07:53:36.689Z,8.80
2019-04-29T07:55:57.595Z,8.80
2019-04-29T07:58:27.330Z,8.90
2019-04-29T08:00:56.436Z,9.10
2019-04-29T08:03:25.027Z,9.10
2019-04-29T08:05:53.471Z,9.20
2019-04-29T08:08:22.846Z,9.40
2019-04-29T08:10:56.148Z,9.50
2019-04-29T08:13:22.027Z,9.70
2019-04-29T08:15:50.466Z,9.80
2019-04-29T08:18:18.931Z,9.80
2019-04-29T08:20:47.386Z,9.90
2019-04-29T08:23:15.867Z,10.00
2019-04-29T08:25:44.325Z,10.20
2019-04-29T08:28:12.778Z,10.40
2019-04-29T08:30:41.822Z,10.80
2019-04-29T08:33:11.965Z,11.00
2019-04-29T08:35:41.521Z,11.00
2019-04-29T08:38:09.982Z,11.10
2019-04-29T08:40:38.443Z,11.10
2019-04-29T08:46:25.581Z,11.10
2019-04-29T08:48:54.070Z,11.10
2019-04-29T08:51:22.518Z,11.10
2019-04-29T08:53:59.729Z,11.10
2019-04-29T08:56:28.175Z,10.90
2019-04-29T08:58:56.689Z,10.80
2019-04-29T09:01:29.279Z,10.90
2019-04-29T09:04:28.627Z,10.70
2019-04-29T09:07:44.424Z,10.60
2019-04-29T09:11:13.029Z,10.60
2019-04-29T09:14:12.838Z,10.60
2019-04-29T09:16:39.818Z,10.70
2019-04-29T09:19:21.748Z,10.80
2019-04-29T09:21:51.909Z,10.90
2019-04-29T09:24:20.319Z,10.90
2019-04-29T09:26:50.402Z,10.90
2019-04-29T09:29:27.838Z,10.70
2019-04-29T09:32:04.934Z,10.60
2019-04-29T09:34:33.429Z,10.70
2019-04-29T09:41:38.831Z,10.60
2019-04-29T09:44:17.486Z,10.70
2019-04-29T09:46:45.930Z,11.00
2019-04-29T09:49:52.195Z,11.30
2019-04-29T09:52:20.642Z,11.60
2019-04-29T09:54:49.130Z,11.70
2019-04-29T09:57:17.643Z,11.90
2019-04-29T10:00:00.148Z,12.00
2019-04-29T10:02:34.052Z,11.90
2019-04-29T10:05:07.158Z,11.70
2019-04-29T10:07:35.618Z,11.70
2019-04-29T10:14:24.463Z,11.50
2019-04-29T10:17:00.259Z,11.40
2019-04-29T10:19:39.772Z,11.10
2019-04-29T10:22:08.263Z,11.00
2019-04-29T10:24:36.704Z,11.20
2019-04-29T10:27:07.235Z,11.10
2019-04-29T10:29:36.180Z,11.00
2019-04-29T10:32:06.820Z,10.80
2019-04-29T10:34:35.945Z,10.80
2019-04-29T10:37:04.439Z,10.80
2019-04-29T10:46:06.813Z,10.90
2019-04-29T10:48:47.998Z,10.80
2019-04-29T10:51:58.027Z,10.80
2019-04-29T10:54:24.810Z,10.60
2019-04-29T10:56:53.294Z,10.50
2019-04-29T10:59:35.559Z,10.50
2019-04-29T11:02:14.321Z,10.50
2019-04-29T11:04:44.897Z,10.50
2019-04-29T11:07:19.162Z,10.50
2019-04-29T11:09:50.703Z,10.50
2019-04-29T11:12:19.928Z,10.40
2019-04-29T11:22:16.570Z,10.20
2019-04-29T11:24:46.663Z,10.10
2019-04-29T11:27:19.737Z,10.10
2019-04-29T11:29:48.333Z,10.00
2019-04-29T11:32:18.533Z,10.00
2019-04-29T11:34:57.747Z,10.00
2019-04-29T11:37:26.238Z,10.00
2019-04-29T11:39:57.121Z,9.90
2019-04-29T11:42:25.176Z,9.90
2019-04-29T11:44:57.247Z,9.90
2019-04-29T11:47:25.115Z,9.90
2019-04-29T11:49:58.375Z,10.10
2019-04-29T11:52:28.099Z,10.00
2019-04-29T11:54:57.102Z,10.20
2019-04-29T11:57:40.138Z,10.10
2019-04-29T12:00:04.637Z,9.80
2019-04-29T12:02:45.251Z,9.80
2019-04-29T12:05:24.749Z,9.80
2019-04-29T12:07:53.329Z,9.60
2019-04-29T12:10:21.825Z,9.60
2019-04-29T12:12:50.431Z,9.80
2019-04-29T12:15:23.472Z,9.70
2019-04-29T12:18:05.948Z,9.60
2019-04-29T12:20:41.821Z,9.70
2019-04-29T12:23:11.081Z,9.70
2019-04-29T12:25:40.607Z,9.50
2019-04-29T12:28:18.980Z,9.30
2019-04-29T12:30:41.328Z,9.30
2019-04-29T12:33:14.442Z,9.30
2019-04-29T12:35:52.046Z,9.20
2019-04-29T12:38:40.164Z,9.20
2019-04-29T12:41:29.669Z,9.20
2019-04-29T12:43:59.565Z,9.20
2019-04-29T12:46:31.567Z,9.00
2019-04-29T12:49:03.673Z,8.90
2019-04-29T12:51:30.237Z,8.80
2019-04-29T12:53:58.716Z,8.90
2019-04-29T12:56:34.839Z,8.90
2019-04-29T12:59:03.428Z,8.80
2019-04-29T13:01:50.990Z,8.90
2019-04-29T13:04:05.422Z,9.00
2019-04-29T13:06:39.682Z,8.90
2019-04-29T13:09:26.287Z,8.90
2019-04-29T13:12:05.120Z,9.00
2019-04-29T13:14:28.616Z,9.10
2019-04-29T13:16:58.306Z,9.10
2019-04-29T13:19:29.681Z,9.20
2019-04-29T13:21:58.483Z,9.30
2019-04-29T13:24:27.149Z,9.20
2019-04-29T13:26:55.801Z,9.40
2019-04-29T13:29:27.168Z,9.30
2019-04-29T13:31:54.391Z,9.50
2019-04-29T13:34:24.924Z,9.50
2019-04-29T13:37:06.541Z,9.50
2019-04-29T13:39:39.087Z,9.50
2019-04-29T13:41:57.697Z,9.50
2019-04-29T13:44:25.087Z,9.30
2019-04-29T13:47:11.465Z,9.20
2019-04-29T13:49:41.527Z,9.10
2019-04-29T13:52:10.641Z,9.10
2019-04-29T13:54:42.453Z,9.10
2019-04-29T13:57:15.662Z,9.00
2019-04-29T13:59:57.884Z,8.90
2019-04-29T14:02:32.262Z,8.90
2019-04-29T14:05:00.357Z,8.80
2019-04-29T14:07:29.838Z,8.70
2019-04-29T14:09:58.274Z,8.80
2019-04-29T14:12:47.645Z,8.90
2019-04-29T14:14:58.565Z,8.80
2019-04-29T14:17:31.440Z,8.80
2019-04-29T14:19:57.191Z,8.80
2019-04-29T14:22:25.714Z,8.70
2019-04-29T14:24:54.166Z,8.80
2019-04-29T14:27:25.014Z,8.90
2019-04-29T14:29:52.736Z,8.90
2019-04-29T14:32:33.238Z,8.90
2019-04-29T14:35:11.952Z,9.00
2019-04-29T14:37:54.512Z,9.10
2019-04-29T14:40:11.634Z,9.10
2019-04-29T14:42:57.561Z,8.90
2019-04-29T14:45:22.505Z,8.90
2019-04-29T14:47:55.506Z,8.80
2019-04-29T14:50:23.943Z,8.70
2019-04-29T14:52:52.428Z,8.70
2019-04-29T14:55:25.415Z,8.80
2019-04-29T14:57:50.971Z,8.80
2019-04-29T15:00:21.286Z,8.60
2019-04-29T15:02:49.816Z,8.60
2019-04-29T15:05:19.117Z,8.50
2019-04-29T15:07:47.585Z,8.60
2019-04-29T15:10:16.058Z,8.60
2019-04-29T15:13:11.552Z,8.50
2019-04-29T15:15:46.227Z,8.60
2019-04-29T15:18:20.255Z,8.90
2019-04-29T15:20:56.415Z,9.10
2019-04-29T15:23:29.325Z,9.10
2019-04-29T15:25:54.337Z,8.80
2019-04-29T15:28:28.135Z,8.90
2019-04-29T15:30:59.087Z,8.90
2019-04-29T15:33:30.527Z,8.70
2019-04-29T15:36:01.630Z,8.60
2019-04-29T15:38:30.348Z,8.70
2019-04-29T15:40:59.952Z,8.70
2019-04-29T15:43:46.531Z,8.70
2019-04-29T15:45:59.315Z,8.80
2019-04-29T15:48:28.015Z,8.90
2019-04-29T15:50:56.452Z,8.90
2019-04-29T15:53:24.937Z,8.70
2019-04-29T15:56:06.167Z,8.60
2019-04-29T15:58:27.628Z,8.60
2019-04-29T16:01:11.653Z,8.70
2019-04-29T16:03:25.792Z,8.70
2019-04-29T16:06:19.884Z,8.90
2019-04-29T16:08:49.558Z,8.90
2019-04-29T16:11:36.161Z,8.80
2019-04-29T16:14:10.142Z,8.80
2019-04-29T16:16:36.415Z,8.60
2019-04-29T16:19:08.155Z,8.70
2019-04-29T16:21:39.493Z,8.60
2019-04-29T16:24:24.783Z,8.60
2019-04-29T16:26:35.213Z,8.80
2019-04-29T16:29:12.282Z,8.90
2019-04-29T16:31:33.776Z,9.00
2019-04-29T16:34:02.238Z,9.00
2019-04-29T16:36:30.938Z,8.90
2019-04-29T16:39:01.013Z,8.80
2019-04-29T16:41:33.909Z,8.60
2019-04-29T16:44:02.433Z,8.80
2019-04-29T16:46:40.603Z,8.90
2019-04-29T16:49:07.596Z,8.90
2019-04-29T16:51:36.042Z,9.00
2019-04-29T16:54:04.578Z,9.00
2019-04-29T16:56:33.288Z,9.10
2019-04-29T16:59:08.972Z,8.90
2019-04-29T17:01:41.915Z,8.90
2019-04-29T17:04:10.383Z,8.90
2019-04-29T17:07:14.803Z,9.00
2019-04-29T17:09:47.937Z,8.80
2019-04-29T17:12:16.375Z,8.70
2019-04-29T17:15:03.108Z,8.80
2019-04-29T17:17:16.713Z,8.90
2019-04-29T17:19:45.226Z,8.80
2019-04-29T17:22:25.593Z,8.60
2019-04-29T17:24:45.865Z,8.60
2019-04-29T17:27:35.043Z,8.50
2019-04-29T17:30:20.801Z,8.50
2019-04-29T17:33:09.823Z,8.50
2019-04-29T17:35:46.883Z,8.40
2019-04-29T17:38:10.800Z,8.30
2019-04-29T17:40:50.619Z,8.30
2019-04-29T17:43:12.631Z,8.50
2019-04-29T17:46:01.869Z,8.40
2019-04-29T17:48:32.874Z,8.40
2019-04-29T17:51:04.292Z,8.40
2019-04-29T17:53:47.339Z,8.40
2019-04-29T17:56:21.366Z,8.40
2019-04-29T17:58:54.764Z,8.50
2019-04-29T18:01:26.655Z,8.40
2019-04-29T18:04:00.281Z,8.40
2019-04-29T18:06:30.913Z,8.40
2019-04-29T18:09:04.960Z,8.40
2019-04-29T18:11:34.153Z,8.40
2019-04-29T18:14:06.503Z,8.40
2019-04-29T18:16:35.344Z,8.30
2019-04-29T18:19:05.842Z,8.20
2019-04-29T18:21:47.354Z,8.20
2019-04-29T18:24:20.108Z,8.20
2019-04-29T18:26:57.654Z,8.20
2019-04-29T18:29:26.440Z,8.20
2019-04-29T18:31:56.135Z,8.20
2019-04-29T18:34:25.302Z,8.20
2019-04-29T18:37:00.176Z,8.20
2019-04-29T18:39:28.569Z,8.30
2019-04-29T18:41:58.736Z,8.40
2019-04-29T18:44:27.081Z,8.50
2019-04-29T18:46:57.329Z,8.50
2019-04-29T18:49:25.933Z,8.50
2019-04-29T18:51:57.888Z,8.50
2019-04-29T18:54:27.069Z,8.40
2019-04-29T18:56:57.524Z,8.40
2019-04-29T18:59:33.386Z,8.50
2019-04-29T19:02:00.856Z,8.50
2019-04-29T19:04:29.683Z,8.50
2019-04-29T19:07:05.435Z,8.50
2019-04-29T19:09:40.365Z,8.50
2019-04-29T19:12:09.827Z,8.50
2019-04-29T19:14:38.911Z,8.50
2019-04-29T19:17:09.133Z,8.50
2019-04-29T19:19:39.448Z,8.50
2019-04-29T19:22:10.045Z,8.40
2019-04-29T19:24:40.555Z,8.40
2019-04-29T19:27:11.348Z,8.40
2019-04-29T19:29:45.538Z,8.40
2019-04-29T19:32:18.910Z,8.30
2019-04-29T19:34:50.035Z,8.40
2019-04-29T19:37:19.874Z,8.30
2019-04-29T19:39:52.490Z,8.30
2019-04-29T19:42:29.018Z,8.30
2019-04-29T19:44:50.136Z,8.30
2019-04-29T19:47:19.402Z,8.30
2019-04-29T19:49:49.441Z,8.30
2019-04-29T19:52:28.097Z,8.50
2019-04-29T19:54:48.996Z,8.40
2019-04-29T19:57:18.111Z,8.40
2019-04-29T19:59:52.047Z,8.40
2019-04-29T20:02:19.231Z,8.40
2019-04-29T20:04:52.359Z,8.40
2019-04-29T20:07:21.266Z,8.40
2019-04-29T20:10:00.014Z,8.40
2019-04-29T20:12:22.818Z,8.40
2019-04-29T20:15:19.563Z,8.50
2019-04-29T20:21:08.606Z,8.50
2019-04-29T20:23:36.990Z,8.50
2019-04-29T20:26:13.838Z,8.40
2019-04-29T20:28:37.145Z,8.40
2019-04-29T20:31:16.440Z,8.40
2019-04-29T20:33:42.199Z,8.50
2019-04-29T20:36:08.777Z,8.50
2019-04-29T20:38:39.242Z,8.50
2019-04-29T20:41:12.987Z,8.50
2019-04-29T20:43:39.626Z,8.50
2019-04-29T20:46:10.323Z,8.60
2019-04-29T20:48:40.021Z,8.60
2019-04-29T20:51:14.169Z,8.60
2019-04-29T20:53:48.813Z,8.60
2019-04-29T20:56:27.544Z,8.50
2019-04-29T20:58:50.946Z,8.50
2019-04-29T21:01:21.297Z,8.50
2019-04-29T21:03:54.722Z,8.50
2019-04-29T21:06:22.833Z,8.50
2019-04-29T21:08:52.258Z,8.50
2019-04-29T21:11:25.690Z,8.40
2019-04-29T21:14:15.616Z,8.50
2019-04-29T21:16:46.341Z,8.50
2019-04-29T21:19:15.646Z,8.50
2019-04-29T21:21:47.352Z,8.50
2019-04-29T21:24:18.552Z,8.60
2019-04-29T21:26:46.021Z,8.50
2019-04-29T21:29:19.237Z,8.50
2019-04-29T21:31:46.132Z,8.50
2019-04-29T21:34:17.448Z,8.40
2019-04-29T21:36:51.121Z,8.50
2019-04-29T21:39:25.186Z,8.40
2019-04-29T21:44:36.995Z,8.60
2019-04-29T21:47:08.016Z,8.60
2019-04-29T21:49:44.892Z,8.50
2019-04-29T21:52:09.427Z,8.50
2019-04-29T21:54:38.485Z,8.50
2019-04-29T22:05:18.269Z,8.50
2019-04-29T22:07:47.437Z,8.40
2019-04-29T22:10:45.158Z,8.50
2019-04-29T22:13:25.465Z,8.50
2019-04-29T22:23:13.149Z,8.60
2019-04-29T22:25:45.696Z,8.80
2019-04-29T22:29:09.009Z,8.90
2019-04-29T22:31:39.427Z,9.00
2019-04-29T22:34:27.741Z,9.00
2019-04-29T22:36:59.113Z,9.10
2019-04-29T22:39:30.226Z,9.10
2019-04-29T22:42:12.977Z,9.20
2019-04-29T22:44:42.306Z,9.20
2019-04-29T22:47:11.403Z,9.40
2019-04-29T22:49:49.436Z,9.40
2019-04-29T22:52:18.436Z,9.30
2019-04-29T22:54:47.286Z,9.30
2019-04-29T22:57:16.238Z,9.20
2019-04-29T22:59:45.462Z,9.20
2019-04-29T23:02:15.789Z,9.10
2019-04-29T23:04:47.222Z,9.20
2019-04-29T23:07:17.789Z,9.10
2019-04-29T23:09:48.202Z,9.20
2019-04-29T23:12:18.806Z,9.20
2019-04-29T23:14:47.535Z,9.20
2019-04-29T23:17:16.411Z,9.30
2019-04-29T23:19:50.638Z,9.40
2019-04-29T23:22:22.029Z,9.40
2019-04-29T23:24:57.446Z,9.40
2019-04-29T23:27:26.525Z,9.40
2019-04-29T23:29:55.504Z,9.40
2019-04-29T23:32:26.378Z,9.50
2019-04-29T23:34:57.122Z,9.40
2019-04-29T23:37:29.155Z,9.40
2019-04-29T23:39:56.406Z,9.40
2019-04-29T23:42:26.085Z,9.40
2019-04-29T23:44:57.068Z,9.40
2019-04-29T23:47:25.885Z,9.40
2019-04-29T23:49:55.516Z,9.40
2019-04-29T23:52:26.970Z,9.40
2019-04-29T23:54:55.946Z,9.40
2019-04-29T23:57:42.775Z,9.40
